ウィーン の空港の天気 - METARとTAF

ウィーン国際空港 ( LOWW / VIE ) - オーストリア ウィーン
飛行場実況気象(Metar)
観測時間08/25 20:50 CEST (08/25 18:50 UTC)
風向・風速東北東 2m/s
視程10km以上
天気現象
少しの雲 雲底高度 1220m
全天の4割程度の雲 雲底高度 3050m
全天の8割程度の雲 雲底高度 8530m
気温23℃
湿度83%
気圧1021hPa
METARLOWW 251850Z 06004KT 9999 FEW040TCU SCT100 BKN280 23/20 Q1021 TEMPO SHRA
過去の天気等 Google飛行場航空写真 Wunderground天気予報

過去48時間のMETAR

飛行場予報(TAF)
発表時間: 8/25 19:15 CEST (8/25 17:15 UTC)
予報対象時間: 25日20時 CEST ~ 27日2時 CEST
風向・風速南東 2m/s
視程10km以上
少しの雲 雲底高度 1070m
全天の8割程度の雲 雲底高度 7620m
25日23時 CEST ~ 26日7時 CEST に 確率 30% で一時的に
風向・風速不定 8m/s 瞬間風速 13m/s
視程6000m
天気現象雷雨
全天の4割程度の積乱雲 雲底高度 910m
全天の8割程度の雲 雲底高度 1520m
26日6時 CEST ~ 26日9時 CEST に 確率 30% で一時的に
視程4000m
天気現象もや
全天の8割程度の雲 雲底高度 460m
26日12時 CEST ~ 26日22時 CEST に一時的に
少しの雲 雲底高度 1220m
少しの積乱雲 雲底高度 1520m
全天の8割程度の雲 雲底高度 9140m
26日14時 CEST ~ 26日22時 CEST に 確率 30% で一時的に
風向・風速不定 8m/s 瞬間風速 13m/s
視程6000m
天気現象雷雨
全天の4割程度の積乱雲 雲底高度 910m
全天の8割程度の雲 雲底高度 1520m
TAF COR LOWW 251715Z 2518/2624 13004KT 9999 FEW035 BKN250 TX26/2613Z TN19/2604Z
PROB30 TEMPO 2521/2605 VRB15G25KT 6000 TSRA SCT030CB BKN050
PROB30 TEMPO 2604/2607 4000 BR BKN015
TEMPO 2610/2620 FEW040 FEW050CB BKN300
PROB30 TEMPO 2612/2620 VRB15G25KT 6000 TSRA SCT030CB BKN050